createdAt,value
2024-02-19T00:01:07.538Z,96163.50
2024-02-19T00:03:35.618Z,96170.41
2024-02-19T00:06:04.830Z,96165.56
2024-02-19T00:08:32.798Z,96157.09
2024-02-19T00:11:02.303Z,96157.91
2024-02-19T00:13:30.492Z,96153.66
2024-02-19T00:15:59.838Z,96152.00
2024-02-19T00:18:27.938Z,96152.63
2024-02-19T00:20:55.854Z,96146.38
2024-02-19T00:23:23.794Z,96148.78
2024-02-19T00:25:52.212Z,96148.78
2024-02-19T00:28:20.177Z,96145.56
2024-02-19T00:30:48.157Z,96146.97
2024-02-19T00:33:18.100Z,96142.34
2024-02-19T00:35:46.963Z,96139.09
2024-02-19T00:38:14.981Z,96146.38
2024-02-19T00:40:43.379Z,96143.97
2024-02-19T00:43:12.343Z,96140.91
2024-02-19T00:45:40.468Z,96130.63
2024-02-19T00:48:08.862Z,96131.63
2024-02-19T00:50:38.232Z,96131.84
2024-02-19T00:53:06.245Z,96139.13
2024-02-19T00:55:34.182Z,96131.88
2024-02-19T00:58:02.150Z,96133.06
2024-02-19T01:00:30.134Z,96129.84
2024-02-19T01:02:59.197Z,96127.00
2024-02-19T01:05:27.814Z,96131.09
2024-02-19T01:07:57.236Z,96131.25
2024-02-19T01:10:25.256Z,96135.50
2024-02-19T01:12:53.234Z,96139.94
2024-02-19T01:15:21.222Z,96130.47
2024-02-19T01:17:49.543Z,96119.38
2024-02-19T01:20:17.604Z,96131.47
2024-02-19T01:22:45.505Z,96132.28
2024-02-19T01:25:15.234Z,96130.88
2024-02-19T01:27:43.784Z,96134.31
2024-02-19T01:30:13.038Z,96127.44
2024-02-19T01:32:41.225Z,96135.50
2024-02-19T01:35:10.450Z,96150.69
2024-02-19T01:37:38.682Z,96151.09
2024-02-19T01:40:10.426Z,96156.13
2024-02-19T01:42:45.901Z,96150.09
2024-02-19T01:45:27.491Z,96152.28
2024-02-19T01:47:56.526Z,96154.91
2024-02-19T01:50:26.846Z,96146.06
2024-02-19T01:52:57.266Z,96142.22
2024-02-19T01:55:27.457Z,96136.16
2024-02-19T01:57:59.722Z,96136.53
2024-02-19T02:00:29.393Z,96142.81
2024-02-19T02:02:57.901Z,96145.44
2024-02-19T02:05:26.604Z,96145.25
2024-02-19T02:07:55.575Z,96142.78
2024-02-19T02:10:23.716Z,96147.25
2024-02-19T02:12:52.408Z,96136.16
2024-02-19T02:15:21.702Z,96131.91
2024-02-19T02:17:49.735Z,96137.16
2024-02-19T02:20:18.130Z,96133.72
2024-02-19T02:22:46.115Z,96129.66
2024-02-19T02:25:14.111Z,96135.34
2024-02-19T02:27:43.745Z,96138.34
2024-02-19T02:30:12.976Z,96128.28
2024-02-19T02:32:40.948Z,96136.94
2024-02-19T02:35:08.875Z,96134.94
2024-02-19T02:37:36.834Z,96131.50
2024-02-19T02:40:05.546Z,96134.94
2024-02-19T02:42:33.489Z,96125.84
2024-02-19T02:45:02.789Z,96131.50
2024-02-19T02:47:30.710Z,96129.28
2024-02-19T02:49:58.622Z,96131.91
2024-02-19T02:52:27.577Z,96137.16
2024-02-19T02:54:55.511Z,96138.34
2024-02-19T02:57:23.551Z,96141.59
2024-02-19T02:59:51.488Z,96145.25
2024-02-19T03:02:20.795Z,96141.78
2024-02-19T03:04:48.768Z,96133.09
2024-02-19T03:07:17.014Z,96135.56
2024-02-19T03:09:45.183Z,96135.34
2024-02-19T03:12:13.193Z,96140.00
2024-02-19T03:14:41.258Z,96138.34
2024-02-19T03:17:09.419Z,96140.38
2024-02-19T03:19:38.820Z,96142.19
2024-02-19T03:22:07.234Z,96133.72
2024-02-19T03:24:35.490Z,96136.34
2024-02-19T03:27:05.279Z,96130.09
2024-02-19T03:29:33.888Z,96125.06
2024-02-19T03:32:01.882Z,96127.06
2024-02-19T03:34:29.897Z,96137.75
2024-02-19T03:36:59.261Z,96138.56
2024-02-19T03:39:27.476Z,96147.06
2024-02-19T03:41:56.006Z,96152.31
2024-02-19T03:44:24.253Z,96150.06
2024-02-19T03:46:52.251Z,96146.06
2024-02-19T03:49:20.341Z,96139.16
2024-02-19T03:51:48.431Z,96140.00
2024-02-19T03:54:17.774Z,96138.19
2024-02-19T03:56:45.815Z,96151.31
2024-02-19T03:59:13.773Z,96158.38
2024-02-19T04:01:41.844Z,96152.91
2024-02-19T04:04:10.018Z,96153.72
2024-02-19T04:06:38.095Z,96158.53
2024-02-19T04:09:06.200Z,96148.84
2024-02-19T04:11:35.462Z,96160.16
2024-02-19T04:14:03.382Z,96164.41
2024-02-19T04:16:31.398Z,96156.53
2024-02-19T04:18:59.592Z,96164.22
2024-02-19T04:21:27.627Z,96152.69
2024-02-19T04:23:56.691Z,96155.31
2024-02-19T04:26:24.651Z,96164.00
2024-02-19T04:28:54.941Z,96161.97
2024-02-19T04:31:22.943Z,96165.03
2024-02-19T04:33:50.984Z,96159.56
2024-02-19T04:36:19.009Z,96160.56
2024-02-19T04:38:47.009Z,96164.81
2024-02-19T04:41:14.979Z,96159.34
2024-02-19T04:43:42.894Z,96163.63
2024-02-19T04:46:13.021Z,96157.97
2024-02-19T04:48:41.092Z,96153.13
2024-02-19T04:51:09.158Z,96153.53
2024-02-19T04:53:37.167Z,96150.69
2024-02-19T04:56:05.364Z,96147.25
2024-02-19T04:58:33.285Z,96146.25
2024-02-19T05:01:02.578Z,96146.06
2024-02-19T05:03:32.036Z,96151.91
2024-02-19T05:06:00.136Z,96150.09
2024-02-19T05:08:28.186Z,96148.06
2024-02-19T05:10:56.260Z,96145.84
2024-02-19T05:13:24.250Z,96138.13
2024-02-19T05:15:53.081Z,96139.78
2024-02-19T05:18:21.163Z,96141.59
2024-02-19T05:20:50.501Z,96144.78
2024-02-19T05:23:18.890Z,96137.81
2024-02-19T05:25:46.867Z,96131.03
2024-02-19T05:28:14.844Z,96140.47
2024-02-19T05:30:42.941Z,96140.19
2024-02-19T05:33:10.941Z,96137.31
2024-02-19T05:35:38.934Z,96143.28
2024-02-19T05:38:08.229Z,96146.69
2024-02-19T05:40:36.188Z,96144.81
2024-02-19T05:43:04.185Z,96143.25
2024-02-19T05:45:32.429Z,96145.88
2024-02-19T05:48:00.704Z,96144.63
2024-02-19T05:50:31.440Z,96149.50
2024-02-19T05:52:59.566Z,96142.56
2024-02-19T05:55:29.098Z,96148.50
2024-02-19T05:57:57.510Z,96150.81
2024-02-19T06:00:25.445Z,96147.84
2024-02-19T06:02:53.589Z,96146.66
2024-02-19T06:05:21.735Z,96154.78
2024-02-19T06:07:49.845Z,96152.75
2024-02-19T06:10:18.273Z,96149.97
2024-02-19T06:12:47.669Z,96155.03
2024-02-19T06:15:16.076Z,96153.03
2024-02-19T06:17:44.151Z,96151.84
2024-02-19T06:20:13.312Z,96155.06
2024-02-19T06:22:41.776Z,96165.38
2024-02-19T06:25:11.300Z,96162.75
2024-02-19T06:27:39.694Z,96165.38
2024-02-19T06:30:10.155Z,96162.16
2024-02-19T06:32:38.088Z,96166.63
2024-02-19T06:35:06.935Z,96172.06
2024-02-19T06:37:34.995Z,96176.91
2024-02-19T06:40:03.127Z,96183.97
2024-02-19T06:42:31.469Z,96197.13
2024-02-19T06:44:59.406Z,96186.59
2024-02-19T06:47:28.697Z,96180.34
2024-02-19T06:49:56.914Z,96186.59
2024-02-19T06:52:25.219Z,96194.06
2024-02-19T06:54:53.305Z,96182.94
2024-02-19T06:57:21.418Z,96187.81
2024-02-19T06:59:49.672Z,96185.56
2024-02-19T07:02:17.758Z,96187.38
2024-02-19T07:04:47.550Z,96194.66
2024-02-19T07:07:15.750Z,96196.03
2024-02-19T07:09:43.748Z,96198.44
2024-02-19T07:12:12.101Z,96194.97
2024-02-19T07:14:40.208Z,96188.03
2024-02-19T07:17:08.138Z,96199.94
2024-02-19T07:19:36.202Z,96207.78
2024-02-19T07:22:06.257Z,96205.78
2024-02-19T07:24:34.400Z,96204.16
2024-02-19T07:27:02.446Z,96207.59
2024-02-19T07:29:30.461Z,96199.72
2024-02-19T07:31:58.580Z,96213.06
2024-02-19T07:34:26.641Z,96210.44
2024-02-19T07:36:55.640Z,96209.00
2024-02-19T07:39:24.941Z,96217.28
2024-02-19T07:41:52.936Z,96216.06
2024-02-19T07:44:20.878Z,96217.28
2024-02-19T07:46:49.491Z,96219.09
2024-02-19T07:49:17.652Z,96220.94
2024-02-19T07:51:45.746Z,96225.63
2024-02-19T07:54:13.744Z,96226.03
2024-02-19T07:56:42.981Z,96229.06
2024-02-19T07:59:10.935Z,96229.50
2024-02-19T08:01:39.149Z,96234.34
2024-02-19T08:04:08.333Z,96225.22
2024-02-19T08:06:36.449Z,96232.88
2024-02-19T08:09:06.016Z,96234.44
2024-02-19T08:11:34.492Z,96235.81
2024-02-19T08:14:04.022Z,96232.50
2024-02-19T08:16:32.071Z,96229.75
2024-02-19T08:19:00.593Z,96237.88
2024-02-19T08:21:28.801Z,96223.31
2024-02-19T08:23:56.714Z,96228.91
2024-02-19T08:26:24.697Z,96235.31
2024-02-19T08:28:52.694Z,96236.59
2024-02-19T08:31:25.031Z,96235.00
2024-02-19T08:33:53.133Z,96243.09
2024-02-19T08:36:21.171Z,96246.97
2024-02-19T08:38:51.097Z,96257.53
2024-02-19T08:41:19.165Z,96251.06
2024-02-19T08:43:47.103Z,96260.88
2024-02-19T08:46:15.732Z,96265.72
2024-02-19T08:48:46.250Z,96282.06
2024-02-19T08:51:14.244Z,96272.47
2024-02-19T08:53:42.174Z,96276.81
2024-02-19T08:56:10.113Z,96276.53
2024-02-19T08:58:38.049Z,96284.50
2024-02-19T09:01:11.270Z,96284.94
2024-02-19T09:03:39.449Z,96278.47
2024-02-19T09:06:09.819Z,96281.47
2024-02-19T09:08:37.907Z,96290.78
2024-02-19T09:11:05.848Z,96292.72
2024-02-19T09:13:35.557Z,96305.56
2024-02-19T09:16:03.722Z,96302.97
2024-02-19T09:18:32.094Z,96308.47
2024-02-19T09:21:00.051Z,96308.63
2024-02-19T09:23:31.271Z,96298.63
2024-02-19T09:25:59.814Z,96302.72
2024-02-19T09:28:27.813Z,96295.59
2024-02-19T09:30:55.864Z,96299.88
2024-02-19T09:33:23.988Z,96309.75
2024-02-19T09:35:52.096Z,96300.94
2024-02-19T09:38:20.166Z,96300.22
2024-02-19T09:40:51.031Z,96309.22
2024-02-19T09:43:21.434Z,96303.72
2024-02-19T09:45:51.064Z,96311.69
2024-02-19T09:48:20.995Z,96314.63
2024-02-19T09:50:50.223Z,96313.56
2024-02-19T09:53:22.401Z,96309.88
2024-02-19T09:55:52.312Z,96314.72
2024-02-19T09:58:20.718Z,96316.16
2024-02-19T10:00:49.619Z,96308.19
2024-02-19T10:03:20.934Z,96324.13
2024-02-19T10:05:50.909Z,96328.72
2024-02-19T10:08:19.230Z,96323.41
2024-02-19T10:10:48.729Z,96327.56
2024-02-19T10:13:19.298Z,96336.13
2024-02-19T10:15:47.263Z,96325.09
2024-02-19T10:18:17.020Z,96329.22
2024-02-19T10:20:47.571Z,96334.81
2024-02-19T10:23:16.324Z,96342.38
2024-02-19T10:25:44.233Z,96341.00
2024-02-19T10:28:12.950Z,96340.28
2024-02-19T10:30:42.619Z,96328.75
2024-02-19T10:33:10.655Z,96339.50
2024-02-19T10:35:38.745Z,96339.22
2024-02-19T10:38:06.905Z,96330.00
2024-02-19T10:40:35.313Z,96330.09
2024-02-19T10:43:05.327Z,96336.38
2024-02-19T10:45:35.350Z,96335.38
2024-02-19T10:48:05.515Z,96329.91
2024-02-19T10:50:34.535Z,96337.34
2024-02-19T10:53:02.511Z,96338.88
2024-02-19T10:55:41.025Z,96341.19
2024-02-19T10:58:20.263Z,96345.84
2024-02-19T11:00:48.463Z,96342.31
2024-02-19T11:03:17.819Z,96343.16
2024-02-19T11:05:47.921Z,96338.44
2024-02-19T11:08:21.231Z,96339.91
2024-02-19T11:10:50.962Z,96344.16
2024-02-19T11:13:22.046Z,96336.25
2024-02-19T11:15:50.440Z,96333.53
2024-02-19T11:18:21.243Z,96328.31
2024-02-19T11:20:51.107Z,96335.03
2024-02-19T11:23:20.343Z,96333.94
2024-02-19T11:25:48.733Z,96339.09
2024-02-19T11:28:17.059Z,96337.09
2024-02-19T11:30:47.904Z,96325.41
2024-02-19T11:33:15.945Z,96334.78
2024-02-19T11:35:45.885Z,96336.88
2024-02-19T11:38:13.970Z,96327.75
2024-02-19T11:40:42.004Z,96325.56
2024-02-19T11:43:12.586Z,96328.78
2024-02-19T11:45:40.986Z,96326.97
2024-02-19T11:48:09.598Z,96318.25
2024-02-19T11:50:37.659Z,96328.53
2024-02-19T11:53:08.072Z,96322.41
2024-02-19T11:55:36.512Z,96325.47
2024-02-19T11:58:06.945Z,96325.47
2024-02-19T12:00:36.514Z,96316.91
2024-02-19T12:03:05.520Z,96320.38
2024-02-19T12:05:33.545Z,96323.00
2024-02-19T12:08:02.424Z,96307.78
2024-02-19T12:10:33.592Z,96305.97
2024-02-19T12:13:01.737Z,96297.31
2024-02-19T12:15:29.739Z,96308.13
2024-02-19T12:17:58.115Z,96306.31
2024-02-19T12:20:26.240Z,96296.72
2024-02-19T12:22:55.050Z,96299.44
2024-02-19T12:25:25.298Z,96295.97
2024-02-19T12:27:54.713Z,96302.16
2024-02-19T12:30:23.834Z,96292.53
2024-02-19T12:32:51.877Z,96288.56
2024-02-19T12:35:20.946Z,96289.88
2024-02-19T12:37:49.314Z,96285.03
2024-02-19T12:40:17.462Z,96289.06
2024-02-19T12:42:46.344Z,96294.50
2024-02-19T12:45:16.014Z,96290.75
2024-02-19T12:47:44.013Z,96285.03
2024-02-19T12:50:13.735Z,96286.06
2024-02-19T12:52:42.126Z,96287.91
2024-02-19T12:55:10.536Z,96276.69
2024-02-19T12:57:39.864Z,96280.94
2024-02-19T13:00:09.885Z,96279.09
2024-02-19T13:02:39.276Z,96274.06
2024-02-19T13:05:08.601Z,96278.66
2024-02-19T13:07:36.874Z,96281.75
2024-02-19T13:10:05.269Z,96287.34
2024-02-19T13:12:33.347Z,96289.34
2024-02-19T13:15:01.823Z,96289.63
2024-02-19T13:17:39.315Z,96297.09
2024-02-19T13:20:14.343Z,96291.34
2024-02-19T13:22:42.646Z,96283.72
2024-02-19T13:25:11.137Z,96292.44
2024-02-19T13:27:39.750Z,96291.47
2024-02-19T13:30:10.812Z,96274.44
2024-02-19T13:32:39.849Z,96264.09
2024-02-19T13:35:12.350Z,96272.31
2024-02-19T13:37:42.558Z,96271.50
2024-02-19T13:40:12.231Z,96263.38
2024-02-19T13:42:41.773Z,96266.47
2024-02-19T13:45:11.262Z,96265.22
2024-02-19T13:47:40.064Z,96260.91
2024-02-19T13:50:09.375Z,96260.59
2024-02-19T13:52:37.570Z,96261.50
2024-02-19T13:55:08.083Z,96256.78
2024-02-19T13:57:36.763Z,96254.31
2024-02-19T14:00:06.420Z,96251.09
2024-02-19T14:02:34.624Z,96251.88
2024-02-19T14:05:03.064Z,96251.09
2024-02-19T14:07:31.565Z,96252.53
2024-02-19T14:09:59.656Z,96259.28
2024-02-19T14:12:29.376Z,96254.59
2024-02-19T14:14:57.652Z,96253.19
2024-02-19T14:17:25.691Z,96254.69
2024-02-19T14:19:54.418Z,96254.69
2024-02-19T14:22:22.926Z,96246.59
2024-02-19T14:24:52.277Z,96255.09
2024-02-19T14:27:20.287Z,96258.81
2024-02-19T14:29:49.625Z,96258.44
2024-02-19T14:32:17.550Z,96255.22
2024-02-19T14:34:45.652Z,96272.69
2024-02-19T14:37:14.178Z,96277.81
2024-02-19T14:39:42.360Z,96291.69
2024-02-19T14:42:10.649Z,96289.94
2024-02-19T14:44:38.666Z,96292.22
2024-02-19T14:47:08.368Z,96286.19
2024-02-19T14:49:36.625Z,96289.69
2024-02-19T14:52:05.044Z,96293.34
2024-02-19T14:54:33.405Z,96287.88
2024-02-19T14:57:01.607Z,96292.56
2024-02-19T14:59:29.827Z,96288.97
2024-02-19T15:01:58.325Z,96283.31
2024-02-19T15:04:27.857Z,96288.81
2024-02-19T15:06:56.814Z,96289.25
2024-02-19T15:09:25.070Z,96289.25
2024-02-19T15:11:53.202Z,96283.41
2024-02-19T15:14:21.662Z,96282.78
2024-02-19T15:16:49.806Z,96282.19
2024-02-19T15:19:18.193Z,96284.66
2024-02-19T15:21:47.807Z,96283.84
2024-02-19T15:24:16.033Z,96293.97
2024-02-19T15:26:44.130Z,96287.88
2024-02-19T15:29:13.163Z,96290.72
2024-02-19T15:31:41.384Z,96285.91
2024-02-19T15:34:09.737Z,96290.38
2024-02-19T15:36:37.809Z,96295.66
2024-02-19T15:39:07.473Z,96285.53
2024-02-19T15:41:35.520Z,96280.47
2024-02-19T15:44:05.351Z,96286.97
2024-02-19T15:46:33.993Z,96290.81
2024-02-19T15:49:02.316Z,96292.88
2024-02-19T15:51:31.052Z,96288.63
2024-02-19T15:53:59.230Z,96296.53
2024-02-19T15:56:30.256Z,96291.28
2024-02-19T15:58:58.263Z,96297.16
2024-02-19T16:01:26.279Z,96297.81
2024-02-19T16:03:54.537Z,96303.44
2024-02-19T16:06:28.719Z,96302.63
2024-02-19T16:08:57.690Z,96299.78
2024-02-19T16:11:25.611Z,96303.44
2024-02-19T16:13:55.286Z,96297.00
2024-02-19T16:16:23.486Z,96303.66
2024-02-19T16:18:51.558Z,96310.34
2024-02-19T16:21:19.542Z,96311.00
2024-02-19T16:23:47.554Z,96303.09
2024-02-19T16:26:15.725Z,96305.25
2024-02-19T16:28:43.797Z,96295.16
2024-02-19T16:31:13.310Z,96285.41
2024-02-19T16:33:43.392Z,96292.88
2024-02-19T16:36:12.047Z,96297.34
2024-02-19T16:38:42.279Z,96292.69
2024-02-19T16:41:10.394Z,96294.16
2024-02-19T16:43:38.521Z,96287.09
2024-02-19T16:46:06.612Z,96287.94
2024-02-19T16:48:39.887Z,96295.84
2024-02-19T16:51:08.601Z,96295.84
2024-02-19T16:53:37.170Z,96293.84
2024-02-19T16:56:07.260Z,96293.44
2024-02-19T16:58:36.444Z,96297.50
2024-02-19T17:01:06.685Z,96295.88
2024-02-19T17:03:36.191Z,96297.50
2024-02-19T17:06:04.568Z,96290.25
2024-02-19T17:08:32.679Z,96289.22
2024-02-19T17:11:00.928Z,96296.72
2024-02-19T17:13:29.109Z,96293.06
2024-02-19T17:15:57.507Z,96298.53
2024-02-19T17:18:25.799Z,96301.75
2024-02-19T17:20:55.228Z,96290.84
2024-02-19T17:23:24.491Z,96291.66
2024-02-19T17:25:52.565Z,96290.25
2024-02-19T17:28:22.949Z,96285.38
2024-02-19T17:30:53.864Z,96281.16
2024-02-19T17:33:22.941Z,96275.28
2024-02-19T17:35:52.306Z,96276.47
2024-02-19T17:38:22.373Z,96273.59
2024-02-19T17:40:50.394Z,96273.59
2024-02-19T17:43:18.634Z,96274.25
2024-02-19T17:45:47.489Z,96266.75
2024-02-19T17:48:15.657Z,96277.50
2024-02-19T17:50:43.728Z,96263.75
2024-02-19T17:53:12.483Z,96263.53
2024-02-19T17:55:41.853Z,96269.41
2024-02-19T17:58:09.929Z,96259.50
2024-02-19T18:00:41.946Z,96261.13
2024-02-19T18:03:10.325Z,96261.50
2024-02-19T18:05:38.590Z,96265.16
2024-02-19T18:08:06.942Z,96258.88
2024-02-19T18:10:34.902Z,96252.22
2024-02-19T18:13:04.942Z,96240.09
2024-02-19T18:15:32.906Z,96242.09
2024-02-19T18:18:04.084Z,96237.88
2024-02-19T18:20:33.826Z,96236.06
2024-02-19T18:23:05.986Z,96232.25
2024-02-19T18:25:34.051Z,96236.28
2024-02-19T18:28:02.185Z,96241.97
2024-02-19T18:30:31.659Z,96242.34
2024-02-19T18:33:02.166Z,96240.53
2024-02-19T18:35:30.473Z,96239.94
2024-02-19T18:38:01.190Z,96243.16
2024-02-19T18:40:30.347Z,96244.78
2024-02-19T18:42:58.427Z,96242.34
2024-02-19T18:45:27.620Z,96237.31
2024-02-19T18:47:57.509Z,96239.72
2024-02-19T18:50:25.700Z,96237.09
2024-02-19T18:52:53.659Z,96237.31
2024-02-19T18:55:24.020Z,96238.72
2024-02-19T18:57:52.162Z,96239.34
2024-02-19T19:00:20.340Z,96230.66
2024-02-19T19:02:48.340Z,96232.03
2024-02-19T19:05:17.797Z,96229.19
2024-02-19T19:07:45.858Z,96230.81
2024-02-19T19:10:13.944Z,96227.38
2024-02-19T19:12:42.169Z,96224.16
2024-02-19T19:15:11.478Z,96225.97
2024-02-19T19:17:39.603Z,96224.16
2024-02-19T19:20:10.257Z,96224.97
2024-02-19T19:22:40.102Z,96224.16
2024-02-19T19:25:09.581Z,96220.50
2024-02-19T19:27:37.680Z,96216.28
2024-02-19T19:30:06.903Z,96212.63
2024-02-19T19:32:36.555Z,96214.25
2024-02-19T19:35:05.622Z,96208.41
2024-02-19T19:37:33.929Z,96212.03
2024-02-19T19:40:07.077Z,96209.41
2024-02-19T19:42:36.854Z,96207.59
2024-02-19T19:45:06.449Z,96212.25
2024-02-19T19:47:35.681Z,96205.38
2024-02-19T19:50:04.139Z,96205.19
2024-02-19T19:52:35.468Z,96211.03
2024-02-19T19:55:05.990Z,96208.41
2024-02-19T19:57:34.106Z,96211.22
2024-02-19T20:00:02.406Z,96203.13
2024-02-19T20:02:36.723Z,96207.81
2024-02-19T20:05:05.361Z,96211.84
2024-02-19T20:07:33.466Z,96208.84
2024-02-19T20:10:04.129Z,96208.84
2024-02-19T20:12:33.527Z,96207.81
2024-02-19T20:15:03.286Z,96207.81
2024-02-19T20:17:33.672Z,96206.19
2024-02-19T20:20:02.214Z,96215.47
2024-02-19T20:22:31.652Z,96211.84
2024-02-19T20:24:59.859Z,96209.81
2024-02-19T20:27:28.046Z,96209.63
2024-02-19T20:29:57.630Z,96213.66
2024-02-19T20:32:25.687Z,96206.78
2024-02-19T20:34:53.813Z,96207.81
2024-02-19T20:37:21.949Z,96214.06
2024-02-19T20:39:50.610Z,96214.88
2024-02-19T20:42:18.782Z,96204.56
2024-02-19T20:44:47.805Z,96210.00
2024-02-19T20:47:18.790Z,96211.25
2024-02-19T20:49:48.148Z,96212.84
2024-02-19T20:52:16.420Z,96203.75
2024-02-19T20:54:44.462Z,96206.19
2024-02-19T20:57:13.067Z,96208.19
2024-02-19T20:59:41.524Z,96205.19
2024-02-19T21:02:09.565Z,96203.56
2024-02-19T21:04:39.050Z,96209.63
2024-02-19T21:07:07.408Z,96207.00
2024-02-19T21:09:37.993Z,96206.78
2024-02-19T21:12:06.764Z,96216.50
2024-02-19T21:14:35.750Z,96210.84
2024-02-19T21:17:04.372Z,96214.25
2024-02-19T21:19:33.584Z,96210.03
2024-02-19T21:22:03.326Z,96210.03
2024-02-19T21:24:31.366Z,96205.56
2024-02-19T21:27:00.548Z,96206.00
2024-02-19T21:29:29.845Z,96201.13
2024-02-19T21:31:58.095Z,96202.34
2024-02-19T21:34:26.205Z,96193.03
2024-02-19T21:36:57.673Z,96191.56
2024-02-19T21:39:27.340Z,96188.97
2024-02-19T21:41:55.386Z,96188.78
2024-02-19T21:44:23.454Z,96189.63
2024-02-19T21:46:51.460Z,96187.97
2024-02-19T21:49:21.402Z,96187.19
2024-02-19T21:51:49.875Z,96183.97
2024-02-19T21:54:17.970Z,96180.13
2024-02-19T21:56:47.588Z,96177.09
2024-02-19T21:59:15.839Z,96176.31
2024-02-19T22:01:43.991Z,96176.09
2024-02-19T22:04:12.009Z,96169.44
2024-02-19T22:06:41.502Z,96172.25
2024-02-19T22:09:09.542Z,96165.59
2024-02-19T22:11:38.207Z,96173.09
2024-02-19T22:14:08.150Z,96162.78
2024-02-19T22:16:36.290Z,96160.13
2024-02-19T22:19:04.527Z,96156.91
2024-02-19T22:21:32.595Z,96151.66
2024-02-19T22:24:01.183Z,96149.66
2024-02-19T22:26:29.358Z,96147.03
2024-02-19T22:28:57.388Z,96141.97
2024-02-19T22:31:26.868Z,96138.75
2024-02-19T22:33:55.148Z,96141.59
2024-02-19T22:36:23.382Z,96137.97
2024-02-19T22:38:51.364Z,96136.34
2024-02-19T22:41:19.749Z,96133.91
2024-02-19T22:43:47.847Z,96129.66
2024-02-19T22:46:15.828Z,96133.31
2024-02-19T22:48:45.228Z,96132.28
2024-02-19T22:51:13.142Z,96133.09
2024-02-19T22:53:41.123Z,96132.50
2024-02-19T22:56:09.050Z,96130.69
2024-02-19T22:58:37.871Z,96126.25
2024-02-19T23:01:06.264Z,96132.28
2024-02-19T23:03:34.393Z,96128.88
2024-02-19T23:06:03.786Z,96126.66
2024-02-19T23:08:31.838Z,96123.41
2024-02-19T23:10:59.896Z,96123.84
2024-02-19T23:13:27.945Z,96119.81
2024-02-19T23:15:56.024Z,96118.78
2024-02-19T23:18:24.121Z,96122.00
2024-02-19T23:20:52.132Z,96128.28
2024-02-19T23:23:21.605Z,96124.63
2024-02-19T23:25:53.858Z,96130.09
2024-02-19T23:28:22.909Z,96129.88
2024-02-19T23:30:53.326Z,96125.84
2024-02-19T23:33:21.426Z,96126.44
2024-02-19T23:35:49.481Z,96119.38
2024-02-19T23:38:23.416Z,96112.50
2024-02-19T23:40:52.036Z,96124.41
2024-02-19T23:43:20.363Z,96121.19
2024-02-19T23:45:49.352Z,96117.56
2024-02-19T23:48:17.815Z,96112.09
2024-02-19T23:50:45.844Z,96104.63
2024-02-19T23:53:15.611Z,96111.47
2024-02-19T23:55:45.080Z,96102.81
2024-02-19T23:58:13.480Z,96105.63
